createdAt,value
2019-03-25T00:02:24.959Z,34.77
2019-03-25T00:04:55.586Z,34.03
2019-03-25T00:07:26.030Z,34.60
2019-03-25T00:09:57.519Z,33.03
2019-03-25T00:12:28.109Z,27.73
2019-03-25T00:14:58.685Z,27.70
2019-03-25T00:17:29.277Z,34.83
2019-03-25T00:19:59.913Z,36.23
2019-03-25T00:22:30.709Z,33.23
2019-03-25T00:25:01.440Z,32.43
2019-03-25T00:27:33.542Z,32.50
2019-03-25T00:30:04.038Z,32.50
2019-03-25T00:32:34.665Z,30.53
2019-03-25T00:35:05.539Z,33.07
2019-03-25T00:37:35.770Z,29.33
2019-03-25T00:40:06.483Z,32.10
2019-03-25T00:42:37.319Z,30.67
2019-03-25T00:45:08.485Z,31.53
2019-03-25T00:47:38.764Z,30.73
2019-03-25T00:50:09.642Z,30.37
2019-03-25T00:52:40.174Z,27.40
2019-03-25T00:55:10.407Z,32.07
2019-03-25T00:57:40.742Z,29.63
2019-03-25T01:00:11.881Z,32.73
2019-03-25T01:02:42.505Z,32.53
2019-03-25T01:05:13.993Z,32.23
2019-03-25T01:07:44.531Z,30.30
2019-03-25T01:10:15.444Z,34.97
2019-03-25T01:12:45.975Z,34.17
2019-03-25T01:15:17.142Z,35.17
2019-03-25T01:17:48.248Z,38.53
2019-03-25T01:20:18.880Z,40.30
2019-03-25T01:22:49.104Z,41.37
2019-03-25T01:25:19.103Z,41.93
2019-03-25T01:27:49.651Z,40.57
2019-03-25T01:30:20.286Z,39.27
2019-03-25T01:32:50.955Z,41.07
2019-03-25T01:35:21.630Z,44.40
2019-03-25T01:37:52.434Z,46.33
2019-03-25T01:40:23.025Z,42.33
2019-03-25T01:42:53.680Z,45.37
2019-03-25T01:45:24.364Z,46.50
2019-03-25T01:47:54.784Z,45.00
2019-03-25T01:50:25.349Z,47.13
2019-03-25T01:52:56.289Z,41.90
2019-03-25T01:55:26.513Z,44.60
2019-03-25T01:57:56.418Z,45.67
2019-03-25T02:00:27.670Z,43.70
2019-03-25T02:02:58.288Z,43.53
2019-03-25T02:05:28.474Z,40.80
2019-03-25T02:07:58.654Z,42.37
2019-03-25T02:10:29.034Z,44.30
2019-03-25T02:12:58.897Z,42.27
2019-03-25T02:15:29.513Z,44.33
2019-03-25T02:17:59.366Z,41.67
2019-03-25T02:20:29.846Z,40.30
2019-03-25T02:23:00.208Z,40.90
2019-03-25T02:25:30.690Z,43.63
2019-03-25T02:28:00.891Z,43.80
2019-03-25T02:30:31.999Z,40.07
2019-03-25T02:33:02.227Z,40.23
2019-03-25T02:35:32.624Z,40.50
2019-03-25T02:38:03.293Z,42.37
2019-03-25T02:40:33.235Z,41.03
2019-03-25T02:43:03.946Z,37.00
2019-03-25T02:45:34.307Z,43.50
2019-03-25T02:48:04.689Z,39.47
2019-03-25T02:50:34.665Z,41.10
2019-03-25T02:53:04.948Z,37.10
2019-03-25T02:55:41.900Z,36.80
2019-03-25T02:58:07.882Z,34.67
2019-03-25T03:00:39.439Z,37.30
2019-03-25T03:03:10.535Z,29.57
2019-03-25T03:05:41.090Z,33.93
2019-03-25T03:08:12.030Z,36.03
2019-03-25T03:10:42.477Z,35.50
2019-03-25T03:13:13.683Z,36.60
2019-03-25T03:15:44.456Z,37.10
2019-03-25T03:18:14.448Z,35.53
2019-03-25T03:20:44.722Z,31.60
2019-03-25T03:23:15.688Z,33.50
2019-03-25T03:25:56.909Z,35.03
2019-03-25T03:28:18.649Z,31.60
2019-03-25T03:30:48.924Z,27.67
2019-03-25T03:33:19.988Z,28.63
2019-03-25T03:35:50.569Z,25.13
2019-03-25T03:38:20.924Z,23.77
2019-03-25T03:40:52.385Z,26.77
2019-03-25T03:43:22.686Z,26.33
2019-03-25T03:45:52.653Z,21.97
2019-03-25T03:48:23.319Z,24.60
2019-03-25T03:50:54.232Z,21.33
2019-03-25T03:53:24.509Z,24.90
2019-03-25T03:55:54.821Z,23.40
2019-03-25T03:58:26.566Z,23.03
2019-03-25T04:00:56.545Z,24.20
2019-03-25T04:03:26.800Z,24.70
2019-03-25T04:05:57.133Z,23.63
2019-03-25T04:08:27.598Z,23.20
2019-03-25T04:10:57.458Z,23.97
2019-03-25T04:13:28.149Z,24.47
2019-03-25T04:16:01.358Z,22.53
2019-03-25T04:18:31.251Z,20.63
2019-03-25T04:21:01.789Z,20.37
2019-03-25T04:23:32.109Z,21.10
2019-03-25T04:26:02.263Z,20.57
2019-03-25T04:28:32.571Z,18.90
2019-03-25T04:31:02.478Z,18.30
2019-03-25T04:33:32.967Z,18.00
2019-03-25T04:36:03.188Z,19.23
2019-03-25T04:38:33.684Z,15.83
2019-03-25T04:41:04.267Z,18.90
2019-03-25T04:43:34.978Z,17.87
2019-03-25T04:46:05.665Z,16.33
2019-03-25T04:48:36.341Z,17.63
2019-03-25T04:51:06.943Z,16.87
2019-03-25T04:53:36.873Z,15.00
2019-03-25T04:56:07.062Z,17.30
2019-03-25T04:58:37.853Z,13.60
2019-03-25T05:01:08.210Z,15.63
2019-03-25T05:03:38.756Z,11.27
2019-03-25T05:06:08.932Z,15.83
2019-03-25T05:08:38.850Z,16.70
2019-03-25T05:11:08.725Z,18.80
2019-03-25T05:13:40.048Z,16.43
2019-03-25T05:16:10.608Z,14.20
2019-03-25T05:18:40.920Z,17.37
2019-03-25T05:21:11.852Z,17.77
2019-03-25T05:23:42.162Z,16.43
2019-03-25T05:26:12.435Z,15.60
2019-03-25T05:28:43.029Z,18.27
2019-03-25T05:31:14.211Z,16.03
2019-03-25T05:33:44.922Z,15.57
2019-03-25T05:36:15.643Z,15.50
2019-03-25T05:38:46.349Z,14.07
2019-03-25T05:41:16.240Z,15.87
2019-03-25T05:43:46.819Z,15.17
2019-03-25T05:46:17.161Z,14.63
2019-03-25T05:48:47.821Z,14.80
2019-03-25T05:51:18.428Z,15.27
2019-03-25T05:53:48.731Z,14.07
2019-03-25T05:56:19.288Z,13.90
2019-03-25T05:58:49.603Z,15.80
2019-03-25T06:01:20.056Z,16.13
2019-03-25T06:03:49.965Z,15.40
2019-03-25T06:06:19.986Z,14.60
2019-03-25T06:08:50.755Z,16.53
2019-03-25T06:11:21.522Z,14.03
2019-03-25T06:13:51.411Z,16.07
2019-03-25T06:16:22.642Z,14.67
2019-03-25T06:18:52.514Z,13.70
2019-03-25T06:21:22.932Z,12.93
2019-03-25T06:23:53.302Z,13.57
2019-03-25T06:26:23.612Z,15.27
2019-03-25T06:28:53.915Z,14.53
2019-03-25T06:31:24.111Z,14.57
2019-03-25T06:33:55.459Z,14.30
2019-03-25T06:36:26.138Z,15.23
2019-03-25T06:38:56.518Z,14.83
2019-03-25T06:41:26.887Z,14.77
2019-03-25T06:43:57.850Z,14.30
2019-03-25T06:46:28.365Z,13.90
2019-03-25T06:48:58.768Z,12.67
2019-03-25T06:51:29.626Z,13.80
2019-03-25T06:54:00.363Z,12.20
2019-03-25T06:56:30.725Z,14.00
2019-03-25T06:59:01.117Z,11.23
2019-03-25T07:01:31.441Z,11.43
2019-03-25T07:04:01.401Z,11.57
2019-03-25T07:06:31.595Z,11.30
2019-03-25T07:09:02.299Z,10.90
2019-03-25T07:11:33.241Z,9.67
2019-03-25T07:14:04.082Z,10.27
2019-03-25T07:16:34.665Z,8.40
2019-03-25T07:19:04.949Z,9.10
2019-03-25T07:21:35.274Z,9.43
2019-03-25T07:24:05.969Z,9.57
2019-03-25T07:26:36.519Z,9.43
2019-03-25T07:29:06.426Z,8.90
2019-03-25T07:31:37.417Z,8.87
2019-03-25T07:34:08.153Z,10.93
2019-03-25T07:36:38.500Z,9.00
2019-03-25T07:39:08.887Z,8.83
2019-03-25T07:41:39.730Z,10.33
2019-03-25T07:44:10.046Z,9.00
2019-03-25T07:46:41.149Z,8.23
2019-03-25T07:49:11.518Z,8.20
2019-03-25T07:51:41.465Z,10.87
2019-03-25T07:54:11.385Z,7.87
2019-03-25T07:56:41.462Z,8.43
2019-03-25T07:59:12.089Z,7.37
2019-03-25T08:01:42.721Z,8.10
2019-03-25T08:04:13.368Z,7.47
2019-03-25T08:06:44.309Z,7.90
2019-03-25T08:09:14.978Z,6.63
2019-03-25T08:11:52.190Z,7.93
2019-03-25T08:14:22.234Z,8.10
2019-03-25T08:16:53.005Z,8.10
2019-03-25T08:19:22.911Z,7.57
2019-03-25T08:22:01.384Z,7.80
2019-03-25T08:24:31.392Z,8.33
2019-03-25T08:27:03.938Z,8.83
2019-03-25T08:29:34.963Z,8.80
2019-03-25T08:32:05.563Z,9.47
2019-03-25T08:34:35.665Z,10.27
2019-03-25T08:37:05.992Z,9.13
2019-03-25T08:39:35.906Z,7.37
2019-03-25T08:42:06.330Z,9.07
2019-03-25T08:44:36.332Z,6.40
2019-03-25T08:47:07.241Z,7.73
2019-03-25T08:49:38.311Z,7.07
2019-03-25T08:52:08.270Z,7.23
2019-03-25T08:54:38.645Z,6.63
2019-03-25T08:57:08.609Z,6.33
2019-03-25T08:59:39.348Z,6.60
2019-03-25T09:02:10.129Z,6.87
2019-03-25T09:04:40.508Z,5.70
2019-03-25T09:07:10.860Z,6.73
2019-03-25T09:09:40.782Z,5.67
2019-03-25T09:12:12.809Z,5.40
2019-03-25T09:14:43.876Z,4.93
2019-03-25T09:17:14.892Z,5.43
2019-03-25T09:19:45.965Z,4.73
2019-03-25T09:22:16.916Z,4.00
2019-03-25T09:24:47.259Z,4.23
2019-03-25T09:27:17.963Z,4.80
2019-03-25T09:29:48.334Z,4.60
2019-03-25T09:32:20.238Z,5.37
2019-03-25T09:34:50.608Z,5.30
2019-03-25T09:37:21.397Z,4.50
2019-03-25T09:39:51.713Z,5.20
2019-03-25T09:42:21.842Z,5.13
2019-03-25T09:44:52.522Z,6.07
2019-03-25T09:47:22.935Z,5.40
2019-03-25T09:49:54.369Z,4.83
2019-03-25T09:52:25.067Z,5.10
2019-03-25T09:54:55.205Z,6.00
2019-03-25T09:57:25.788Z,6.17
2019-03-25T10:00:18.808Z,6.07
2019-03-25T10:02:50.020Z,4.03
2019-03-25T10:05:20.685Z,4.33
2019-03-25T10:07:51.156Z,4.83
2019-03-25T10:10:21.767Z,4.20
2019-03-25T10:12:52.107Z,2.30
2019-03-25T10:15:23.052Z,5.00
2019-03-25T10:17:54.109Z,4.00
2019-03-25T10:20:24.722Z,4.40
2019-03-25T10:22:55.148Z,4.90
2019-03-25T10:25:25.841Z,5.40
2019-03-25T10:27:56.082Z,4.27
2019-03-25T10:30:26.729Z,6.13
2019-03-25T10:32:56.646Z,3.53
2019-03-25T10:35:26.918Z,4.10
2019-03-25T10:37:57.327Z,4.97
2019-03-25T10:40:28.898Z,4.90
2019-03-25T10:42:59.404Z,4.87
2019-03-25T10:45:29.870Z,4.73
2019-03-25T10:47:59.936Z,4.57
2019-03-25T10:50:31.706Z,5.47
2019-03-25T10:53:02.116Z,3.23
2019-03-25T10:55:32.182Z,4.77
2019-03-25T10:58:02.765Z,5.30
2019-03-25T11:00:32.941Z,5.17
2019-03-25T11:03:03.670Z,4.57
2019-03-25T11:05:40.214Z,4.70
2019-03-25T11:08:10.904Z,5.43
2019-03-25T11:10:41.236Z,4.40
2019-03-25T11:13:11.648Z,4.90
2019-03-25T11:15:42.051Z,4.20
2019-03-25T11:18:12.674Z,4.60
2019-03-25T11:20:43.074Z,3.67
2019-03-25T11:23:13.945Z,2.70
2019-03-25T11:25:45.305Z,3.40
2019-03-25T11:28:15.894Z,5.27
2019-03-25T11:31:03.421Z,4.83
2019-03-25T11:33:34.129Z,4.57
2019-03-25T11:36:04.509Z,4.57
2019-03-25T11:38:34.412Z,6.30
2019-03-25T11:41:04.806Z,5.50
2019-03-25T11:43:34.738Z,5.40
2019-03-25T11:46:04.676Z,4.23
2019-03-25T11:48:34.666Z,5.80
2019-03-25T11:51:05.301Z,6.20
2019-03-25T11:53:36.370Z,6.00
2019-03-25T11:56:06.473Z,6.07
2019-03-25T11:58:36.851Z,6.10
2019-03-25T12:01:07.496Z,5.10
2019-03-25T12:03:38.812Z,5.97
2019-03-25T12:06:09.379Z,5.80
2019-03-25T12:08:39.913Z,5.07
2019-03-25T12:11:10.691Z,6.10
2019-03-25T12:13:41.266Z,7.10
2019-03-25T12:16:11.997Z,6.10
2019-03-25T12:18:42.309Z,7.07
2019-03-25T12:21:12.278Z,7.50
2019-03-25T12:23:42.701Z,7.87
2019-03-25T12:26:13.349Z,5.93
2019-03-25T12:28:43.369Z,7.80
2019-03-25T12:31:13.644Z,6.87
2019-03-25T12:33:43.613Z,8.57
2019-03-25T12:36:13.901Z,8.27
2019-03-25T12:38:46.069Z,7.67
2019-03-25T12:41:16.147Z,8.20
2019-03-25T12:43:46.230Z,7.03
2019-03-25T12:46:16.685Z,7.80
2019-03-25T12:48:47.071Z,7.10
2019-03-25T12:51:17.011Z,5.47
2019-03-25T12:53:46.969Z,9.40
2019-03-25T12:56:17.669Z,7.70
2019-03-25T12:58:48.696Z,7.40
2019-03-25T13:01:19.409Z,5.90
2019-03-25T13:03:50.389Z,8.70
2019-03-25T13:06:21.498Z,8.10
2019-03-25T13:08:51.823Z,8.17
2019-03-25T13:11:22.706Z,5.73
2019-03-25T13:13:52.832Z,7.37
2019-03-25T13:16:23.933Z,7.67
2019-03-25T13:18:53.883Z,7.50
2019-03-25T13:21:24.154Z,7.73
2019-03-25T13:23:54.201Z,7.00
2019-03-25T13:26:24.401Z,8.07
2019-03-25T13:29:01.909Z,7.20
2019-03-25T13:31:27.517Z,5.93
2019-03-25T13:33:59.030Z,6.20
2019-03-25T13:36:32.314Z,8.43
2019-03-25T13:39:02.472Z,5.00
2019-03-25T13:41:33.330Z,7.23
2019-03-25T13:44:03.991Z,6.53
2019-03-25T13:46:35.300Z,5.70
2019-03-25T13:49:06.322Z,6.17
2019-03-25T13:51:38.180Z,4.13
2019-03-25T13:54:09.045Z,6.83
2019-03-25T13:56:38.933Z,7.33
2019-03-25T13:59:10.857Z,7.40
2019-03-25T14:01:44.979Z,7.37
2019-03-25T14:04:15.340Z,7.07
2019-03-25T14:06:46.042Z,7.50
2019-03-25T14:09:16.328Z,8.20
2019-03-25T14:11:46.590Z,7.40
2019-03-25T14:14:16.941Z,8.70
2019-03-25T14:16:55.075Z,7.60
2019-03-25T14:19:25.944Z,9.07
2019-03-25T14:21:55.963Z,7.10
2019-03-25T14:24:28.445Z,6.73
2019-03-25T14:26:59.450Z,7.80
2019-03-25T14:29:29.786Z,8.10
2019-03-25T14:32:00.952Z,8.20
2019-03-25T14:34:31.307Z,7.03
2019-03-25T14:37:02.234Z,9.03
2019-03-25T14:39:32.311Z,9.77
2019-03-25T14:42:02.967Z,6.50
2019-03-25T14:44:33.934Z,8.50
2019-03-25T14:47:04.252Z,9.67
2019-03-25T14:49:34.165Z,8.87
2019-03-25T14:52:04.146Z,10.27
2019-03-25T14:54:34.412Z,11.00
2019-03-25T14:57:07.342Z,11.87
2019-03-25T14:59:38.036Z,11.30
2019-03-25T15:02:09.052Z,12.60
2019-03-25T15:04:39.346Z,13.23
2019-03-25T15:07:09.352Z,14.40
2019-03-25T15:09:40.052Z,14.10
2019-03-25T15:12:10.401Z,18.30
2019-03-25T15:14:41.140Z,17.90
2019-03-25T15:17:11.685Z,23.67
2019-03-25T15:19:41.730Z,25.03
2019-03-25T15:22:15.090Z,19.23
2019-03-25T15:24:46.266Z,22.03
2019-03-25T15:27:16.581Z,24.93
2019-03-25T15:29:46.893Z,20.80
2019-03-25T15:32:18.638Z,19.80
2019-03-25T15:34:48.813Z,23.33
2019-03-25T15:37:21.529Z,22.20
2019-03-25T15:39:51.455Z,16.23
2019-03-25T15:42:21.689Z,20.00
2019-03-25T15:44:51.978Z,20.77
2019-03-25T15:47:23.386Z,18.47
2019-03-25T15:49:53.352Z,17.87
2019-03-25T15:52:23.789Z,18.10
2019-03-25T15:54:56.964Z,21.43
2019-03-25T15:57:27.681Z,19.00
2019-03-25T15:59:58.018Z,17.10
2019-03-25T16:02:28.353Z,19.77
2019-03-25T16:04:58.758Z,16.93
2019-03-25T16:07:30.010Z,18.27
2019-03-25T16:09:59.927Z,16.27
2019-03-25T16:12:30.688Z,15.27
2019-03-25T16:15:01.185Z,15.10
2019-03-25T16:17:31.985Z,15.70
2019-03-25T16:20:02.637Z,10.40
2019-03-25T16:22:32.978Z,13.47
2019-03-25T16:25:03.647Z,14.03
2019-03-25T16:27:34.669Z,13.77
2019-03-25T16:30:05.685Z,12.40
2019-03-25T16:32:35.999Z,13.07
2019-03-25T16:35:06.771Z,14.27
2019-03-25T16:37:37.059Z,13.63
2019-03-25T16:40:08.209Z,12.67
2019-03-25T16:42:40.276Z,13.37
2019-03-25T16:45:10.953Z,10.20
2019-03-25T16:47:41.242Z,11.93
2019-03-25T16:50:12.032Z,11.77
2019-03-25T16:52:42.754Z,13.23
2019-03-25T16:55:13.206Z,9.40
2019-03-25T16:57:43.397Z,9.10
2019-03-25T17:00:13.513Z,8.23
2019-03-25T17:02:44.225Z,12.97
2019-03-25T17:05:15.227Z,8.00
2019-03-25T17:07:45.924Z,8.70
2019-03-25T17:10:16.805Z,10.00
2019-03-25T17:12:47.402Z,8.43
2019-03-25T17:15:18.032Z,12.43
2019-03-25T17:17:48.094Z,12.43
2019-03-25T17:20:18.881Z,9.43
2019-03-25T17:22:49.511Z,12.83
2019-03-25T17:25:19.459Z,11.10
2019-03-25T17:27:50.814Z,11.67
2019-03-25T17:30:21.634Z,12.27
2019-03-25T17:32:51.937Z,13.00
2019-03-25T17:35:21.839Z,11.87
2019-03-25T17:37:52.093Z,12.37
2019-03-25T17:40:22.336Z,9.33
2019-03-25T17:42:53.164Z,11.87
2019-03-25T17:45:23.462Z,14.83
2019-03-25T17:47:53.797Z,14.63
2019-03-25T17:50:24.146Z,16.13
2019-03-25T17:52:54.196Z,14.00
2019-03-25T17:55:24.473Z,18.07
2019-03-25T17:57:54.706Z,14.20
2019-03-25T18:00:59.123Z,15.77
2019-03-25T18:03:29.321Z,15.87
2019-03-25T18:05:59.700Z,15.13
2019-03-25T18:08:30.600Z,14.20
2019-03-25T18:11:01.625Z,14.03
2019-03-25T18:13:32.285Z,14.20
2019-03-25T18:16:02.838Z,11.10
2019-03-25T18:18:33.178Z,10.83
2019-03-25T18:21:03.872Z,11.40
2019-03-25T18:23:34.503Z,9.53
2019-03-25T18:26:05.127Z,7.03
2019-03-25T18:28:36.173Z,13.00
2019-03-25T18:31:06.853Z,7.27
2019-03-25T18:33:37.401Z,7.40
2019-03-25T18:36:07.774Z,7.97
2019-03-25T18:38:37.753Z,8.70
2019-03-25T18:41:07.745Z,9.20
2019-03-25T18:43:37.774Z,8.43
2019-03-25T18:46:08.125Z,9.17
2019-03-25T18:48:38.339Z,9.20
2019-03-25T18:51:08.381Z,8.93
2019-03-25T18:53:38.973Z,8.60
2019-03-25T18:56:09.368Z,8.70
2019-03-25T18:58:40.047Z,8.07
2019-03-25T19:01:10.256Z,10.80
2019-03-25T19:03:40.636Z,9.10
2019-03-25T19:06:11.249Z,11.40
2019-03-25T19:08:41.730Z,11.90
2019-03-25T19:11:12.183Z,11.40
2019-03-25T19:13:42.423Z,11.90
2019-03-25T19:16:12.659Z,13.57
2019-03-25T19:18:42.554Z,14.73
2019-03-25T19:21:12.784Z,14.73
2019-03-25T19:23:42.737Z,16.03
2019-03-25T19:26:13.311Z,15.47
2019-03-25T19:28:43.728Z,16.37
2019-03-25T19:31:13.668Z,16.33
2019-03-25T19:33:44.267Z,18.47
2019-03-25T19:36:14.959Z,18.63
2019-03-25T19:38:45.588Z,19.97
2019-03-25T19:41:15.585Z,21.40
2019-03-25T19:43:45.539Z,19.53
2019-03-25T19:46:16.341Z,21.40
2019-03-25T19:48:46.970Z,21.63
2019-03-25T19:51:17.756Z,21.63
2019-03-25T19:53:47.672Z,22.23
2019-03-25T19:56:17.645Z,22.90
2019-03-25T19:58:48.798Z,24.47
2019-03-25T20:01:19.111Z,22.53
2019-03-25T20:03:49.334Z,25.37
2019-03-25T20:06:26.069Z,20.70
2019-03-25T20:08:51.633Z,24.83
2019-03-25T20:11:21.995Z,23.90
2019-03-25T20:13:53.267Z,23.20
2019-03-25T20:16:23.598Z,27.00
2019-03-25T20:18:54.238Z,24.33
2019-03-25T20:21:24.156Z,26.87
2019-03-25T20:23:54.864Z,26.23
2019-03-25T20:26:25.121Z,28.70
2019-03-25T20:28:55.486Z,28.80
2019-03-25T20:31:25.747Z,29.10
2019-03-25T20:33:55.769Z,27.50
2019-03-25T20:36:26.844Z,29.80
2019-03-25T20:38:57.690Z,27.13
2019-03-25T20:41:27.994Z,25.93
2019-03-25T20:43:58.961Z,27.80
2019-03-25T20:46:29.250Z,28.37
2019-03-25T20:48:59.387Z,25.60
2019-03-25T20:51:30.183Z,25.80
2019-03-25T20:54:00.553Z,24.97
2019-03-25T20:56:31.211Z,22.87
2019-03-25T20:59:01.977Z,25.73
2019-03-25T21:01:32.494Z,23.73
2019-03-25T21:04:03.410Z,25.73
2019-03-25T21:06:33.695Z,25.43
2019-03-25T21:09:05.806Z,25.30
2019-03-25T21:11:37.034Z,26.00
2019-03-25T21:14:07.462Z,26.30
2019-03-25T21:16:38.414Z,25.57
2019-03-25T21:19:09.453Z,26.70
2019-03-25T21:21:40.790Z,24.77
2019-03-25T21:24:11.766Z,26.00
2019-03-25T21:26:42.459Z,26.03
2019-03-25T21:29:13.785Z,24.70
2019-03-25T21:31:43.819Z,26.30
2019-03-25T21:34:14.485Z,24.70
2019-03-25T21:36:44.820Z,25.93
2019-03-25T21:39:15.114Z,29.50
2019-03-25T21:41:45.569Z,29.87
2019-03-25T21:44:16.433Z,27.47
2019-03-25T21:46:47.314Z,30.20
2019-03-25T21:49:17.689Z,31.23
2019-03-25T21:51:48.354Z,31.20
2019-03-25T21:54:18.515Z,29.40
2019-03-25T21:56:48.949Z,35.20
2019-03-25T21:59:19.186Z,32.67
2019-03-25T22:01:49.197Z,31.30
2019-03-25T22:04:19.672Z,26.90
2019-03-25T22:06:50.757Z,31.10
2019-03-25T22:09:21.453Z,30.77
2019-03-25T22:11:51.918Z,27.80
2019-03-25T22:14:22.730Z,29.10
2019-03-25T22:16:53.386Z,35.80
2019-03-25T22:19:23.946Z,35.27
2019-03-25T22:21:54.547Z,34.10
2019-03-25T22:24:24.978Z,34.43
2019-03-25T22:26:55.601Z,33.70
2019-03-25T22:29:26.243Z,34.40
2019-03-25T22:31:56.566Z,34.07
2019-03-25T22:34:26.860Z,31.60
2019-03-25T22:36:57.400Z,28.37
2019-03-25T22:39:27.951Z,30.00
2019-03-25T22:41:58.565Z,28.40
2019-03-25T22:44:29.405Z,29.70
2019-03-25T22:46:59.999Z,29.53
2019-03-25T22:49:30.232Z,29.53
2019-03-25T22:52:00.412Z,26.63
2019-03-25T22:54:31.413Z,30.53
2019-03-25T22:57:02.120Z,26.60
2019-03-25T22:59:31.993Z,24.80
2019-03-25T23:02:02.522Z,29.50
2019-03-25T23:04:32.861Z,28.83
2019-03-25T23:07:02.781Z,20.87
2019-03-25T23:09:33.367Z,25.90
2019-03-25T23:12:03.364Z,27.03
2019-03-25T23:14:33.339Z,26.60
2019-03-25T23:17:03.634Z,27.17
2019-03-25T23:19:34.315Z,23.93
2019-03-25T23:22:04.681Z,25.20
2019-03-25T23:24:34.973Z,26.70
2019-03-25T23:27:05.788Z,25.90
2019-03-25T23:29:35.912Z,26.13
2019-03-25T23:32:06.232Z,27.07
2019-03-25T23:34:36.801Z,22.70
2019-03-25T23:37:07.038Z,23.87
2019-03-25T23:39:38.126Z,29.37
2019-03-25T23:42:09.179Z,25.27
2019-03-25T23:44:40.550Z,23.63
2019-03-25T23:47:10.549Z,23.10
2019-03-25T23:49:40.806Z,23.23
2019-03-25T23:52:11.031Z,23.67
2019-03-25T23:54:41.390Z,23.17
2019-03-25T23:57:11.987Z,24.33
2019-03-25T23:59:43.105Z,24.07
